Time;durP1;ratioP1;P1;durP2;ratioP2;P2;SDS_P1;SDS_P2;PMS_P1;PMS_P2;Temp;Humidity;BMP_temperature;BMP_pressure;BME280_temperature;BME280_humidity;BME280_pressure;Samples;Min_cycle;Max_cycle;Signal;HPM_P1;HPM_P2
2021/09/06 00:01:06;;;;;;;1.50;1.00;;;17.50;98.20;;;;;;4987219;28;20532;-81
2021/09/06 00:03:35;;;;;;;1.50;0.90;;;17.50;98.20;;;;;;4992138;28;20540;-80
2021/09/06 00:06:06;;;;;;;1.50;1.00;;;17.40;98.20;;;;;;4980952;28;20496;-80
2021/09/06 00:08:33;;;;;;;1.50;1.00;;;17.40;98.20;;;;;;4986205;28;20464;-81
2021/09/06 00:11:02;;;;;;;1.50;1.00;;;17.40;98.20;;;;;;4981667;28;20465;-80
2021/09/06 00:13:29;;;;;;;1.50;0.90;;;17.40;98.20;;;;;;4991315;28;20461;-81
2021/09/06 00:15:56;;;;;;;1.50;1.00;;;17.30;98.20;;;;;;4981587;28;20489;-80
2021/09/06 00:18:25;;;;;;;1.50;0.93;;;17.30;98.20;;;;;;4990498;28;20903;-81
2021/09/06 00:20:54;;;;;;;1.50;1.00;;;17.30;98.20;;;;;;4982095;28;20829;-81
2021/09/06 00:23:21;;;;;;;1.50;1.00;;;17.30;98.20;;;;;;4990994;28;20465;-80
2021/09/06 00:25:48;;;;;;;1.50;1.00;;;17.20;98.20;;;;;;4981838;28;20483;-80
2021/09/06 00:28:14;;;;;;;1.50;0.90;;;17.20;98.20;;;;;;4982112;28;20461;-81
2021/09/06 00:30:42;;;;;;;1.70;1.50;;;17.20;98.20;;;;;;4992927;28;20457;-80
2021/09/06 00:33:09;;;;;;;1.53;1.00;;;17.20;98.20;;;;;;4980195;28;20478;-80
2021/09/06 00:35:36;;;;;;;1.50;1.00;;;17.20;98.20;;;;;;4991175;28;20876;-80
2021/09/06 00:38:05;;;;;;;1.50;1.00;;;17.10;98.20;;;;;;4972001;28;20481;-80
2021/09/06 00:40:32;;;;;;;1.50;0.90;;;17.10;98.20;;;;;;4992235;28;20489;-81
2021/09/06 00:42:59;;;;;;;1.50;0.97;;;17.10;98.20;;;;;;4974293;28;20481;-80
2021/09/06 00:45:26;;;;;;;1.50;1.00;;;17.10;98.20;;;;;;4995202;28;20499;-80
2021/09/06 00:47:53;;;;;;;1.50;1.00;;;17.00;98.20;;;;;;4983820;28;20489;-81
2021/09/06 00:50:19;;;;;;;1.50;1.00;;;17.00;98.20;;;;;;4995997;28;20682;-80
2021/09/06 00:52:48;;;;;;;1.50;1.00;;;17.00;98.20;;;;;;4976018;28;20488;-82
2021/09/06 00:55:17;;;;;;;1.60;1.10;;;17.00;98.20;;;;;;4995444;28;20492;-81
2021/09/06 00:57:44;;;;;;;1.50;1.00;;;17.00;98.20;;;;;;4976134;28;20493;-80
2021/09/06 01:00:13;;;;;;;1.50;0.90;;;17.00;98.20;;;;;;4995783;28;20694;-81
2021/09/06 01:02:40;;;;;;;1.50;0.97;;;16.90;98.20;;;;;;4975718;28;20552;-80
2021/09/06 01:05:08;;;;;;;1.50;1.00;;;16.90;98.20;;;;;;4995940;28;20967;-82
2021/09/06 01:07:35;;;;;;;1.73;1.10;;;16.90;98.20;;;;;;4981719;28;21011;-82
2021/09/06 01:10:02;;;;;;;1.50;1.00;;;16.90;98.20;;;;;;4995461;28;20449;-81
2021/09/06 01:12:30;;;;;;;1.50;1.00;;;16.90;98.20;;;;;;4974642;28;20874;-81
2021/09/06 01:14:57;;;;;;;1.50;1.00;;;16.90;98.20;;;;;;4994394;28;20461;-82
2021/09/06 01:17:25;;;;;;;1.50;0.90;;;16.90;98.20;;;;;;4983853;28;20711;-82
2021/09/06 01:19:51;;;;;;;1.50;1.10;;;16.90;98.20;;;;;;4993848;28;20480;-81
2021/09/06 01:22:19;;;;;;;1.50;1.00;;;16.80;98.20;;;;;;4984836;28;20949;-81
2021/09/06 01:24:45;;;;;;;1.50;1.00;;;16.80;98.20;;;;;;4993746;28;20604;-82
2021/09/06 01:27:14;;;;;;;1.50;1.00;;;16.80;98.20;;;;;;4990868;28;20573;-81
2021/09/06 01:29:42;;;;;;;1.50;1.00;;;16.80;98.20;;;;;;4994853;28;20467;-83
2021/09/06 01:32:09;;;;;;;1.57;1.10;;;16.70;98.20;;;;;;4981568;28;20485;-82
2021/09/06 01:34:37;;;;;;;1.50;0.97;;;16.70;98.20;;;;;;4989082;28;20453;-82
2021/09/06 01:37:04;;;;;;;1.73;1.63;;;16.70;98.20;;;;;;4980787;28;20492;-83
2021/09/06 01:39:31;;;;;;;1.60;1.17;;;16.70;98.20;;;;;;4988424;28;20492;-82
2021/09/06 01:41:59;;;;;;;1.50;1.00;;;16.70;98.20;;;;;;4983721;28;20610;-79
2021/09/06 01:44:28;;;;;;;1.50;0.90;;;16.60;98.20;;;;;;4992506;28;20804;-83
2021/09/06 01:46:55;;;;;;;1.50;0.90;;;16.60;98.20;;;;;;4974734;28;20878;-82
2021/09/06 01:49:21;;;;;;;1.57;1.00;;;16.60;98.20;;;;;;4983106;28;20457;-83
2021/09/06 01:51:48;;;;;;;1.50;0.90;;;16.60;98.20;;;;;;4979267;28;20488;-82
2021/09/06 01:54:15;;;;;;;1.50;0.90;;;16.50;98.20;;;;;;4992967;28;20465;-81
2021/09/06 01:56:41;;;;;;;1.50;0.90;;;16.50;98.20;;;;;;4982106;28;20493;-82
2021/09/06 01:59:08;;;;;;;1.50;1.00;;;16.50;98.20;;;;;;4968062;28;20480;-82
2021/09/06 02:01:36;;;;;;;1.50;1.00;;;16.50;98.20;;;;;;4981638;28;20500;-81
2021/09/06 02:04:03;;;;;;;1.50;1.00;;;16.50;98.20;;;;;;4990387;28;20877;-81
2021/09/06 02:06:30;;;;;;;1.60;1.20;;;16.40;98.20;;;;;;4980203;28;20499;-82
2021/09/06 02:08:57;;;;;;;1.50;1.00;;;16.40;98.20;;;;;;4984020;28;20458;-82
2021/09/06 02:11:26;;;;;;;1.50;1.00;;;16.40;98.20;;;;;;4980588;28;20583;-82
2021/09/06 02:13:53;;;;;;;1.50;1.00;;;16.40;98.20;;;;;;4979409;28;20472;-83
2021/09/06 02:16:20;;;;;;;1.50;0.90;;;16.30;98.20;;;;;;4981444;28;20480;-80
2021/09/06 02:18:48;;;;;;;1.50;1.00;;;16.30;98.20;;;;;;4991535;28;20466;-82
2021/09/06 02:21:15;;;;;;;1.50;0.93;;;16.30;98.20;;;;;;4981562;28;20864;-80
2021/09/06 02:23:42;;;;;;;1.50;0.90;;;16.30;98.20;;;;;;4991840;28;20465;-83
2021/09/06 02:26:08;;;;;;;1.50;1.00;;;16.30;98.20;;;;;;4980538;28;20496;-83
2021/09/06 02:28:35;;;;;;;1.50;1.00;;;16.20;98.20;;;;;;4984483;28;20473;-81
2021/09/06 02:31:02;;;;;;;1.50;0.90;;;16.20;98.20;;;;;;4981528;28;20468;-83
2021/09/06 02:33:29;;;;;;;1.50;0.90;;;16.20;98.20;;;;;;4984394;28;20453;-82
2021/09/06 02:35:57;;;;;;;1.50;0.90;;;16.20;98.20;;;;;;4979684;28;20484;-81
2021/09/06 02:38:23;;;;;;;1.50;1.00;;;16.20;98.20;;;;;;4983230;28;20544;-81
2021/09/06 02:40:50;;;;;;;1.50;1.00;;;16.10;98.20;;;;;;4980641;28;20481;-80
2021/09/06 02:43:17;;;;;;;1.50;0.90;;;16.10;98.20;;;;;;4982240;28;20984;-80
2021/09/06 02:45:44;;;;;;;1.50;0.90;;;16.10;98.20;;;;;;4992433;28;20484;-83
2021/09/06 02:48:10;;;;;;;1.50;0.90;;;16.10;98.20;;;;;;4963794;28;20844;-80
2021/09/06 02:50:37;;;;;;;1.50;1.00;;;16.10;98.20;;;;;;4992381;28;20457;-82
2021/09/06 02:53:05;;;;;;;1.50;1.00;;;16.10;98.20;;;;;;4971806;28;20491;-80
2021/09/06 02:55:32;;;;;;;1.50;0.90;;;16.00;98.20;;;;;;4990369;28;20592;-82
2021/09/06 02:57:59;;;;;;;1.90;1.50;;;16.00;98.20;;;;;;4986360;28;20870;-82
2021/09/06 03:00:26;;;;;;;1.50;0.90;;;16.00;98.20;;;;;;4992356;28;20485;-82
2021/09/06 03:02:53;;;;;;;1.50;0.90;;;16.00;98.20;;;;;;4965515;28;20490;-82
2021/09/06 03:05:20;;;;;;;1.50;1.00;;;16.00;98.20;;;;;;4994208;28;20484;-80
2021/09/06 03:07:47;;;;;;;1.50;0.90;;;15.90;98.20;;;;;;4972321;28;20488;-82
2021/09/06 03:10:15;;;;;;;1.50;0.90;;;15.90;98.20;;;;;;4993127;28;20457;-81
2021/09/06 03:12:42;;;;;;;1.50;1.00;;;15.90;98.20;;;;;;4973065;28;20492;-81
2021/09/06 03:15:10;;;;;;;1.50;1.00;;;15.90;98.20;;;;;;4993317;28;20496;-80
2021/09/06 03:17:37;;;;;;;1.57;1.00;;;15.90;98.20;;;;;;4978664;28;20622;-81
2021/09/06 03:20:04;;;;;;;1.50;1.00;;;15.90;98.20;;;;;;4996859;28;20489;-78
2021/09/06 03:22:33;;;;;;;1.50;1.10;;;15.90;98.20;;;;;;4985262;28;20496;-81
2021/09/06 03:25:00;;;;;;;1.53;1.00;;;15.80;98.20;;;;;;4992484;28;20468;-81
2021/09/06 03:27:28;;;;;;;1.57;1.00;;;15.90;98.20;;;;;;4974407;28;20855;-80
2021/09/06 03:29:55;;;;;;;1.50;1.00;;;15.80;98.20;;;;;;4994145;28;20744;-79
2021/09/06 03:32:21;;;;;;;1.57;1.00;;;15.80;98.20;;;;;;4987094;28;20965;-80
2021/09/06 03:34:48;;;;;;;1.50;1.00;;;15.70;98.20;;;;;;4997212;28;20461;-81
2021/09/06 03:37:15;;;;;;;1.50;0.97;;;15.70;98.20;;;;;;4981901;28;20495;-81
2021/09/06 03:39:42;;;;;;;1.50;0.90;;;15.70;98.20;;;;;;4994830;28;20460;-78
2021/09/06 03:42:09;;;;;;;1.53;1.00;;;15.70;98.20;;;;;;4986346;28;20531;-79
2021/09/06 03:44:37;;;;;;;1.50;1.00;;;15.70;98.20;;;;;;4997784;28;20456;-79
2021/09/06 03:47:04;;;;;;;1.50;1.00;;;15.60;98.20;;;;;;4986322;28;20912;-81
2021/09/06 03:49:31;;;;;;;1.50;1.00;;;15.60;98.20;;;;;;4997258;28;20500;-78
2021/09/06 03:51:58;;;;;;;1.50;0.90;;;15.60;98.20;;;;;;4986530;28;21113;-79
2021/09/06 03:54:24;;;;;;;1.50;1.00;;;15.60;98.20;;;;;;4997105;28;20477;-80
2021/09/06 03:56:51;;;;;;;1.50;1.00;;;15.60;98.20;;;;;;4992123;28;20663;-81
2021/09/06 03:59:19;;;;;;;1.50;0.90;;;15.60;98.20;;;;;;4994589;28;20576;-79
2021/09/06 04:01:47;;;;;;;1.60;1.20;;;15.50;98.20;;;;;;4988201;28;20489;-81
2021/09/06 04:04:14;;;;;;;1.50;0.97;;;15.50;98.20;;;;;;4996711;28;20472;-79
2021/09/06 04:06:41;;;;;;;1.50;1.00;;;15.50;98.20;;;;;;4986498;28;20515;-79
2021/09/06 04:09:08;;;;;;;1.50;1.00;;;15.50;98.20;;;;;;4995133;28;20488;-79
2021/09/06 04:11:35;;;;;;;1.50;0.90;;;15.50;98.20;;;;;;4973915;28;20492;-79
2021/09/06 04:14:01;;;;;;;1.50;0.90;;;15.50;98.20;;;;;;4996979;28;20475;-79
2021/09/06 04:16:28;;;;;;;1.50;1.00;;;15.50;98.20;;;;;;4987507;28;20493;-79
2021/09/06 04:18:56;;;;;;;1.50;1.00;;;15.40;98.20;;;;;;5000973;28;20452;-79
2021/09/06 04:21:23;;;;;;;2.00;1.80;;;15.40;98.20;;;;;;4990838;28;20484;-79
2021/09/06 04:23:50;;;;;;;1.50;1.00;;;15.40;98.20;;;;;;5002051;28;20475;-80
2021/09/06 04:26:17;;;;;;;1.50;1.00;;;15.40;98.20;;;;;;4986498;28;20488;-81
2021/09/06 04:28:43;;;;;;;1.60;1.00;;;15.40;98.20;;;;;;4993024;28;20503;-83
2021/09/06 04:31:10;;;;;;;1.50;0.97;;;15.30;98.20;;;;;;4983771;28;20488;-81
2021/09/06 04:33:37;;;;;;;1.50;0.93;;;15.30;98.20;;;;;;4995300;28;20457;-81
2021/09/06 04:36:05;;;;;;;1.53;1.00;;;15.30;98.20;;;;;;4988330;28;20480;-80
2021/09/06 04:38:32;;;;;;;1.57;1.10;;;15.30;98.20;;;;;;4993634;28;20457;-81
2021/09/06 04:40:59;;;;;;;1.57;1.00;;;15.30;98.20;;;;;;4988984;28;20484;-81
2021/09/06 04:43:25;;;;;;;1.57;0.93;;;15.30;98.20;;;;;;4993152;28;20479;-81
2021/09/06 04:45:52;;;;;;;1.50;1.00;;;15.30;98.20;;;;;;4988348;28;20507;-81
2021/09/06 04:48:19;;;;;;;1.53;1.00;;;15.30;98.20;;;;;;4997609;28;20562;-80
2021/09/06 04:50:46;;;;;;;1.53;1.00;;;15.30;98.20;;;;;;5000594;28;20601;-80
2021/09/06 04:53:27;;;;;;;1.50;1.00;;;15.20;98.20;;;;;;4997705;28;20465;-81
2021/09/06 04:55:56;;;;;;;1.50;1.00;;;15.20;98.20;;;;;;4988794;28;20480;-82
2021/09/06 04:58:28;;;;;;;1.50;1.07;;;15.20;98.20;;;;;;4977061;28;20968;-81
2021/09/06 05:03:54;;;;;;;1.50;1.00;;;15.20;98.20;;;;;;4963810;28;20473;-81
2021/09/06 05:06:23;;;;;;;1.50;1.00;;;15.20;98.20;;;;;;4981923;28;20482;-79
2021/09/06 05:08:52;;;;;;;1.60;1.20;;;15.10;98.20;;;;;;4985885;28;20991;-79
2021/09/06 05:11:19;;;;;;;1.57;1.00;;;15.10;98.20;;;;;;4986357;28;21044;-80
2021/09/06 05:13:46;;;;;;;1.60;1.10;;;15.10;98.20;;;;;;4994815;28;20987;-81
2021/09/06 05:16:13;;;;;;;1.57;1.10;;;15.10;98.20;;;;;;4985747;28;20572;-82
2021/09/06 05:18:43;;;;;;;1.50;1.00;;;15.10;98.20;;;;;;4994794;28;20461;-80
2021/09/06 05:21:11;;;;;;;1.50;1.00;;;15.10;98.20;;;;;;4987641;28;20477;-80
2021/09/06 05:23:38;;;;;;;1.50;1.00;;;15.10;98.20;;;;;;5009235;28;20463;-81
2021/09/06 05:26:07;;;;;;;1.50;0.90;;;15.10;98.20;;;;;;4986688;28;20476;-80
2021/09/06 05:28:34;;;;;;;1.60;1.00;;;15.10;98.20;;;;;;4994175;28;20461;-81
2021/09/06 05:31:02;;;;;;;1.57;1.00;;;15.20;98.20;;;;;;4978776;28;20996;-81
2021/09/06 05:33:29;;;;;;;1.53;1.00;;;15.20;98.20;;;;;;4988279;28;20683;-81
2021/09/06 05:35:56;;;;;;;1.60;1.00;;;15.20;98.20;;;;;;4983381;28;20476;-82
2021/09/06 05:38:23;;;;;;;2.07;1.87;;;15.20;98.20;;;;;;4983300;28;20480;-81
2021/09/06 05:40:50;;;;;;;2.03;1.83;;;15.20;98.20;;;;;;4982191;28;20503;-82
2021/09/06 05:43:18;;;;;;;1.50;1.00;;;15.20;98.20;;;;;;4991395;28;20471;-82
2021/09/06 05:45:45;;;;;;;1.50;1.00;;;15.30;98.20;;;;;;4991980;28;20493;-80
2021/09/06 05:48:12;;;;;;;1.57;1.10;;;15.30;98.20;;;;;;4981529;28;20495;-79
2021/09/06 05:50:38;;;;;;;1.50;1.00;;;15.40;98.20;;;;;;4994077;28;20503;-81
2021/09/06 05:53:07;;;;;;;1.50;1.00;;;15.40;98.20;;;;;;4976467;28;20548;-82
2021/09/06 05:55:34;;;;;;;1.50;1.00;;;15.50;98.20;;;;;;4994049;28;20489;-81
2021/09/06 05:58:01;;;;;;;1.50;1.00;;;15.50;98.20;;;;;;4983099;28;20555;-82
2021/09/06 06:00:29;;;;;;;1.50;1.00;;;15.60;98.20;;;;;;4991992;28;20489;-82
2021/09/06 06:02:56;;;;;;;1.50;1.00;;;15.80;98.20;;;;;;4984340;28;20517;-84
2021/09/06 06:05:23;;;;;;;1.50;1.00;;;15.90;98.20;;;;;;4994904;28;20496;-82
2021/09/06 06:07:49;;;;;;;1.50;0.90;;;16.10;98.20;;;;;;4972642;28;20499;-82
2021/09/06 06:10:16;;;;;;;1.50;0.97;;;16.20;98.20;;;;;;4990896;28;20465;-81
2021/09/06 06:12:43;;;;;;;1.50;1.00;;;16.40;98.20;;;;;;4979321;28;21034;-83
2021/09/06 06:15:10;;;;;;;1.57;1.00;;;16.50;98.20;;;;;;4991869;28;20516;-81
2021/09/06 06:17:42;;;;;;;1.50;0.90;;;16.60;98.20;;;;;;4980034;28;20495;-80
2021/09/06 06:20:10;;;;;;;1.50;0.90;;;16.80;98.20;;;;;;4990496;28;20468;-80
2021/09/06 06:22:37;;;;;;;1.50;1.00;;;16.90;98.20;;;;;;4978394;28;20504;-81
2021/09/06 06:25:04;;;;;;;1.50;0.93;;;17.00;98.20;;;;;;4988575;28;20647;-81
2021/09/06 06:27:31;;;;;;;1.50;0.93;;;17.10;98.20;;;;;;4970750;28;20494;-79
2021/09/06 06:29:58;;;;;;;1.50;1.00;;;17.30;98.20;;;;;;4989097;28;20470;-81
2021/09/06 06:32:25;;;;;;;1.53;0.90;;;17.40;98.20;;;;;;4976379;28;20493;-81
2021/09/06 06:34:53;;;;;;;1.50;0.90;;;17.40;98.20;;;;;;4987693;28;20849;-80
2021/09/06 06:37:20;;;;;;;1.53;1.00;;;17.50;98.20;;;;;;4976748;28;20484;-81
2021/09/06 06:39:47;;;;;;;1.50;0.90;;;17.60;98.20;;;;;;4988736;28;20552;-81
2021/09/06 06:42:13;;;;;;;1.50;1.00;;;17.60;98.20;;;;;;4977786;28;21015;-80
2021/09/06 06:44:40;;;;;;;1.50;1.00;;;17.70;98.20;;;;;;4988592;28;20461;-81
2021/09/06 06:47:07;;;;;;;1.60;1.00;;;17.90;98.20;;;;;;4977077;28;20485;-81
2021/09/06 06:49:34;;;;;;;1.50;1.00;;;18.00;98.20;;;;;;4989052;28;20987;-83
2021/09/06 06:52:03;;;;;;;1.53;0.90;;;18.10;98.20;;;;;;4979105;28;20489;-82
2021/09/06 06:54:30;;;;;;;1.50;0.90;;;18.20;98.20;;;;;;4990841;28;20465;-86
2021/09/06 06:56:57;;;;;;;1.50;1.00;;;18.40;98.20;;;;;;4977851;28;20956;-85
2021/09/06 06:59:23;;;;;;;1.60;1.00;;;18.70;98.20;;;;;;4989274;28;20475;-83
2021/09/06 07:01:50;;;;;;;1.50;0.97;;;18.80;98.20;;;;;;4980184;28;20535;-84
2021/09/06 07:04:18;;;;;;;1.57;1.00;;;18.90;98.20;;;;;;4978953;28;21019;-84
2021/09/06 07:06:45;;;;;;;1.50;1.00;;;19.20;98.20;;;;;;4973395;28;20497;-81
2021/09/06 07:09:13;;;;;;;1.53;0.90;;;19.40;98.20;;;;;;4987478;28;20461;-81
2021/09/06 07:11:40;;;;;;;1.53;0.97;;;19.60;98.20;;;;;;4971417;28;20486;-81
2021/09/06 07:14:07;;;;;;;1.50;0.90;;;19.80;98.20;;;;;;4981027;28;20475;-82
2021/09/06 07:16:34;;;;;;;1.50;1.00;;;19.90;98.20;;;;;;4978522;28;20497;-83
2021/09/06 07:19:01;;;;;;;1.50;0.90;;;20.00;98.20;;;;;;4987164;28;20891;-81
2021/09/06 07:21:27;;;;;;;1.50;0.90;;;20.20;98.20;;;;;;4975406;28;20831;-83
2021/09/06 07:23:54;;;;;;;1.50;0.90;;;20.40;98.20;;;;;;4984688;28;20465;-82
2021/09/06 07:26:22;;;;;;;1.53;0.90;;;20.60;98.20;;;;;;4972313;28;20492;-81
2021/09/06 07:28:49;;;;;;;1.57;0.90;;;20.70;98.10;;;;;;4987798;28;20465;-82
2021/09/06 07:31:16;;;;;;;1.57;0.90;;;20.80;98.20;;;;;;4988229;28;20477;-84
2021/09/06 07:33:42;;;;;;;3.10;1.47;;;20.80;97.60;;;;;;4993433;28;20469;-82
2021/09/06 07:36:09;;;;;;;1.50;0.93;;;20.90;98.20;;;;;;4981590;28;20492;-82
2021/09/06 07:38:36;;;;;;;1.50;0.90;;;21.00;98.20;;;;;;4993691;28;20516;-84
2021/09/06 07:41:03;;;;;;;1.53;1.00;;;21.10;97.60;;;;;;4965263;28;20484;-83
2021/09/06 07:43:31;;;;;;;1.57;1.00;;;21.20;97.30;;;;;;4994577;28;20912;-81
2021/09/06 07:45:58;;;;;;;1.50;0.90;;;21.40;96.40;;;;;;4982736;28;20497;-83
2021/09/06 07:48:24;;;;;;;1.53;0.90;;;21.50;95.70;;;;;;4989317;28;20461;-83
2021/09/06 07:50:51;;;;;;;1.60;1.23;;;21.70;95.70;;;;;;4983177;28;20525;-83
2021/09/06 07:53:19;;;;;;;1.50;0.90;;;21.80;96.50;;;;;;4992454;28;20543;-82
2021/09/06 07:55:46;;;;;;;1.50;1.00;;;22.00;95.30;;;;;;4991457;28;20484;-83
2021/09/06 07:58:12;;;;;;;1.57;0.90;;;22.10;95.40;;;;;;4968715;28;20489;-84
2021/09/06 08:00:41;;;;;;;1.50;1.00;;;22.10;94.90;;;;;;4997210;28;20461;-83
2021/09/06 08:03:07;;;;;;;1.53;0.90;;;22.20;95.60;;;;;;4980645;28;20902;-81
2021/09/06 08:05:34;;;;;;;1.50;0.90;;;22.30;94.80;;;;;;4972642;28;20485;-83
2021/09/06 08:08:01;;;;;;;1.50;0.90;;;22.30;95.70;;;;;;4963619;28;20536;-79
2021/09/06 08:10:28;;;;;;;1.50;0.90;;;22.30;94.20;;;;;;4991136;28;20865;-81
2021/09/06 08:12:55;;;;;;;1.50;0.90;;;22.50;95.10;;;;;;4979277;28;20496;-78
2021/09/06 08:15:21;;;;;;;2.37;1.33;;;22.60;94.10;;;;;;4989550;28;20845;-82
2021/09/06 08:17:49;;;;;;;1.60;1.13;;;22.80;93.40;;;;;;4985054;28;21026;-81
2021/09/06 08:20:17;;;;;;;1.80;1.20;;;23.00;92.80;;;;;;4990458;28;20787;-80
2021/09/06 08:22:44;;;;;;;1.50;0.90;;;23.20;92.10;;;;;;4973466;28;21302;-81
2021/09/06 08:25:13;;;;;;;1.53;0.90;;;23.30;92.00;;;;;;4989398;28;20485;-80
2021/09/06 08:27:40;;;;;;;1.50;0.90;;;23.50;91.50;;;;;;4963157;28;20493;-81
2021/09/06 08:30:09;;;;;;;1.53;0.90;;;23.70;91.50;;;;;;4970994;28;20461;-81
2021/09/06 08:32:36;;;;;;;1.53;0.90;;;23.70;90.50;;;;;;4974933;28;20485;-80
2021/09/06 08:35:06;;;;;;;1.50;0.90;;;23.80;91.00;;;;;;4971857;28;20494;-81
2021/09/06 08:37:33;;;;;;;1.70;1.33;;;23.90;91.20;;;;;;4978460;28;20989;-81
2021/09/06 08:39:59;;;;;;;1.50;0.90;;;23.90;90.00;;;;;;4972012;28;20890;-81
2021/09/06 08:42:29;;;;;;;1.50;0.90;;;24.00;90.20;;;;;;4970804;28;20484;-81
2021/09/06 08:44:56;;;;;;;1.50;0.90;;;24.10;90.50;;;;;;4971405;28;20863;-79
2021/09/06 08:47:22;;;;;;;1.53;0.90;;;24.20;91.50;;;;;;4971670;28;21037;-81
2021/09/06 08:49:51;;;;;;;1.53;0.90;;;24.30;91.30;;;;;;4982363;28;20461;-80
2021/09/06 08:52:19;;;;;;;1.50;0.90;;;24.30;91.30;;;;;;4967217;28;20587;-78
2021/09/06 08:54:46;;;;;;;1.50;0.90;;;24.30;90.50;;;;;;4974983;28;20867;-80
2021/09/06 08:57:13;;;;;;;1.50;0.90;;;24.20;91.20;;;;;;4962224;28;20501;-80
2021/09/06 08:59:41;;;;;;;1.53;0.90;;;24.30;89.80;;;;;;4973345;28;20470;-78
2021/09/06 09:02:08;;;;;;;1.60;1.20;;;24.40;89.20;;;;;;4970061;28;20492;-78
2021/09/06 09:04:35;;;;;;;1.50;0.90;;;24.50;89.50;;;;;;4973983;28;20569;-79
2021/09/06 09:07:03;;;;;;;1.50;0.90;;;24.70;89.30;;;;;;4965301;28;20497;-79
2021/09/06 09:09:35;;;;;;;1.57;0.90;;;24.80;88.20;;;;;;4975844;28;20528;-80
2021/09/06 09:12:09;;;;;;;1.50;0.90;;;25.00;87.80;;;;;;4964033;28;21016;-78
2021/09/06 09:14:38;;;;;;;1.50;0.90;;;25.10;87.60;;;;;;4972080;28;20489;-79
2021/09/06 09:17:05;;;;;;;1.50;0.90;;;25.30;87.20;;;;;;4967006;28;20490;-79
2021/09/06 09:19:32;;;;;;;1.50;0.80;;;25.40;87.60;;;;;;4973898;28;20466;-79
2021/09/06 09:22:01;;;;;;;1.50;0.90;;;25.60;86.20;;;;;;4967184;28;21116;-80
2021/09/06 09:24:28;;;;;;;1.50;0.90;;;25.60;85.50;;;;;;4974949;28;20465;-80
2021/09/06 09:26:58;;;;;;;1.50;0.90;;;25.60;85.30;;;;;;4967441;28;20495;-80
2021/09/06 09:29:25;;;;;;;1.53;0.80;;;25.70;84.50;;;;;;4976522;28;20473;-81
2021/09/06 09:31:54;;;;;;;1.50;0.80;;;25.80;82.50;;;;;;4967681;28;20488;-80
2021/09/06 09:34:21;;;;;;;1.50;0.80;;;25.90;83.30;;;;;;4975891;28;20465;-81
2021/09/06 09:36:49;;;;;;;1.50;0.90;;;25.90;81.50;;;;;;4962794;28;20498;-81
2021/09/06 09:39:18;;;;;;;1.50;0.80;;;26.00;81.00;;;;;;4969389;28;20472;-79
2021/09/06 09:41:46;;;;;;;1.57;0.80;;;26.10;80.40;;;;;;4966427;28;20484;-81
2021/09/06 09:44:20;;;;;;;1.50;0.90;;;26.20;79.70;;;;;;4978182;28;20471;-79
2021/09/06 09:46:55;;;;;;;1.53;0.90;;;26.20;79.30;;;;;;4964769;28;20558;-79
2021/09/06 09:49:23;;;;;;;1.50;0.90;;;26.30;78.10;;;;;;4975259;28;20461;-80
2021/09/06 09:51:50;;;;;;;1.50;0.80;;;26.30;78.90;;;;;;4965171;28;20925;-78
2021/09/06 09:54:17;;;;;;;1.50;0.80;;;26.40;78.20;;;;;;4972398;28;20989;-81
2021/09/06 09:56:44;;;;;;;1.50;0.87;;;26.50;79.40;;;;;;4967632;28;20515;-78
2021/09/06 09:59:12;;;;;;;1.50;0.80;;;26.50;79.30;;;;;;4976235;28;20471;-79
2021/09/06 10:01:44;;;;;;;1.50;0.90;;;26.60;78.10;;;;;;4969487;28;20484;-79
2021/09/06 10:04:13;;;;;;;1.50;0.80;;;26.60;78.60;;;;;;4973646;28;20468;-78
2021/09/06 10:06:42;;;;;;;1.50;0.80;;;26.60;77.40;;;;;;4961304;28;20492;-79
2021/09/06 10:09:12;;;;;;;1.50;0.90;;;26.60;77.40;;;;;;4979981;28;20461;-79
2021/09/06 10:11:41;;;;;;;1.50;0.80;;;26.70;77.90;;;;;;4963159;28;20876;-79
2021/09/06 10:14:13;;;;;;;1.50;1.00;;;26.70;77.50;;;;;;4979456;28;20854;-78
2021/09/06 10:16:41;;;;;;;1.50;0.90;;;26.70;78.80;;;;;;4966863;28;20484;-78
2021/09/06 10:19:10;;;;;;;1.50;0.83;;;26.80;78.20;;;;;;4978739;28;20465;-78
2021/09/06 10:21:41;;;;;;;1.50;0.80;;;26.80;78.40;;;;;;4966068;28;20488;-78
2021/09/06 10:24:20;;;;;;;1.50;0.90;;;26.90;79.20;;;;;;4973254;28;20480;-78
2021/09/06 10:26:47;;;;;;;1.50;0.80;;;26.90;78.90;;;;;;4969050;28;20515;-78
2021/09/06 10:29:19;;;;;;;1.50;0.80;;;26.90;78.50;;;;;;4977612;28;20465;-78
2021/09/06 10:31:59;;;;;;;1.60;1.20;;;26.90;78.20;;;;;;4969318;28;20497;-77
2021/09/06 10:34:29;;;;;;;1.50;0.80;;;27.00;79.10;;;;;;4969291;28;20457;-79
2021/09/06 10:37:04;;;;;;;1.50;0.80;;;27.10;78.80;;;;;;4966928;28;20500;-78
2021/09/06 10:39:32;;;;;;;1.50;0.90;;;27.10;78.80;;;;;;4964458;28;20475;-78
2021/09/06 10:42:10;;;;;;;1.50;0.90;;;27.20;78.50;;;;;;4969196;28;20519;-78
2021/09/06 10:44:38;;;;;;;1.53;0.97;;;27.20;77.70;;;;;;4975414;28;20476;-77
2021/09/06 10:47:13;;;;;;;1.50;0.90;;;27.20;79.20;;;;;;4968554;28;20488;-77
2021/09/06 10:49:43;;;;;;;1.50;0.80;;;27.50;77.30;;;;;;4974547;28;20469;-77
2021/09/06 10:52:10;;;;;;;1.70;1.30;;;27.50;76.80;;;;;;4966637;28;20504;-79
2021/09/06 10:54:39;;;;;;;1.50;0.80;;;27.60;77.00;;;;;;4967243;28;20501;-77
2021/09/06 10:57:08;;;;;;;1.50;0.80;;;27.60;77.30;;;;;;4959030;28;20492;-78
2021/09/06 10:59:35;;;;;;;1.50;0.90;;;27.70;76.10;;;;;;4968620;28;20461;-81
2021/09/06 11:02:07;;;;;;;1.50;0.80;;;27.70;77.30;;;;;;4959064;28;21368;-77
2021/09/06 11:04:36;;;;;;;1.50;1.00;;;27.90;75.90;;;;;;4968677;28;20480;-77
2021/09/06 11:07:06;;;;;;;1.47;0.80;;;27.80;74.20;;;;;;4960962;28;20798;-77
2021/09/06 11:09:34;;;;;;;1.50;0.90;;;27.80;75.60;;;;;;4970681;28;20742;-78
2021/09/06 11:12:03;;;;;;;1.50;0.80;;;28.00;75.60;;;;;;4964715;28;20485;-79
2021/09/06 11:14:38;;;;;;;1.50;0.90;;;28.10;75.10;;;;;;4977049;28;20465;-79
2021/09/06 11:17:16;;;;;;;1.50;0.80;;;28.10;73.50;;;;;;4958798;28;20506;-78
2021/09/06 11:19:44;;;;;;;1.50;0.80;;;28.10;74.50;;;;;;4970760;28;20877;-78
2021/09/06 11:22:15;;;;;;;1.50;0.80;;;28.10;75.40;;;;;;4966318;28;20484;-78
2021/09/06 11:24:42;;;;;;;2.10;1.20;;;28.30;73.90;;;;;;4970300;28;20773;-78
2021/09/06 11:27:09;;;;;;;1.50;0.90;;;28.40;74.20;;;;;;4964804;28;21619;-79
2021/09/06 11:29:41;;;;;;;1.47;0.80;;;28.30;74.40;;;;;;4971847;28;20465;-78
2021/09/06 11:32:08;;;;;;;1.50;1.10;;;28.30;75.00;;;;;;4963178;28;20524;-79
2021/09/06 11:34:35;;;;;;;1.50;0.80;;;28.40;74.00;;;;;;4972138;28;20468;-79
2021/09/06 11:37:08;;;;;;;1.70;1.53;;;28.40;73.50;;;;;;4964679;28;20484;-79
2021/09/06 11:39:35;;;;;;;1.50;0.90;;;28.40;74.00;;;;;;4972035;28;20571;-79
2021/09/06 11:42:03;;;;;;;1.70;1.40;;;28.30;73.70;;;;;;4965068;28;20983;-79
2021/09/06 11:44:30;;;;;;;1.50;0.80;;;28.20;73.70;;;;;;4972854;28;20945;-79
2021/09/06 11:46:57;;;;;;;1.50;1.00;;;28.20;73.60;;;;;;4970904;28;20514;-79
2021/09/06 11:49:24;;;;;;;1.50;0.90;;;28.10;72.90;;;;;;4975102;28;21004;-79
2021/09/06 11:51:53;;;;;;;1.50;0.80;;;28.10;74.10;;;;;;4965243;28;21045;-79
2021/09/06 11:54:23;;;;;;;1.43;0.90;;;28.10;73.70;;;;;;4972997;28;21321;-79
2021/09/06 11:56:59;;;;;;;1.50;0.90;;;28.10;72.00;;;;;;4963812;28;20495;-79
2021/09/06 11:59:29;;;;;;;1.50;0.90;;;28.20;73.20;;;;;;4966403;28;20460;-79
2021/09/06 12:01:56;;;;;;;1.50;0.80;;;28.10;72.80;;;;;;4966321;28;20588;-80
2021/09/06 12:04:22;;;;;;;1.50;0.90;;;28.20;72.90;;;;;;4972779;28;20482;-79
2021/09/06 12:06:49;;;;;;;1.50;0.93;;;28.20;72.50;;;;;;4963764;28;21043;-79
2021/09/06 12:09:20;;;;;;;1.43;0.80;;;28.40;73.60;;;;;;4972076;28;20464;-78
2021/09/06 12:11:51;;;;;;;1.50;0.80;;;28.70;71.10;;;;;;4955191;28;20489;-78
2021/09/06 12:14:18;;;;;;;1.50;0.80;;;28.80;71.40;;;;;;4967699;28;20458;-80
2021/09/06 12:16:44;;;;;;;1.50;0.80;;;29.10;70.50;;;;;;4957568;28;20497;-79
2021/09/06 12:19:20;;;;;;;1.50;0.80;;;29.30;70.10;;;;;;4966640;28;20670;-79
2021/09/06 12:21:48;;;;;;;1.50;0.80;;;29.40;69.40;;;;;;4961720;28;20484;-80
2021/09/06 12:24:20;;;;;;;1.47;0.80;;;29.50;69.70;;;;;;4971734;28;20485;-78
2021/09/06 12:26:48;;;;;;;1.60;1.00;;;29.60;68.60;;;;;;4957955;28;20489;-79
2021/09/06 12:29:26;;;;;;;1.47;0.80;;;29.70;68.60;;;;;;4972339;28;20581;-78
2021/09/06 12:31:53;;;;;;;1.50;0.90;;;29.70;67.80;;;;;;4964290;28;20484;-79
2021/09/06 12:34:19;;;;;;;1.47;0.80;;;29.70;67.70;;;;;;4973459;28;20206;-79
2021/09/06 12:36:52;;;;;;;1.50;0.80;;;29.80;67.50;;;;;;4956965;28;20993;-79
2021/09/06 12:39:19;;;;;;;1.50;0.87;;;29.80;66.80;;;;;;4969495;28;20492;-79
2021/09/06 12:41:47;;;;;;;1.47;0.80;;;29.60;67.00;;;;;;4957891;28;20492;-78
2021/09/06 12:44:14;;;;;;;1.50;0.80;;;29.70;68.60;;;;;;4977600;28;20481;-79
2021/09/06 12:46:41;;;;;;;1.50;0.80;;;29.90;67.70;;;;;;4966228;28;20523;-79
2021/09/06 12:49:08;;;;;;;1.50;0.80;;;29.90;68.60;;;;;;4978210;28;21121;-79
2021/09/06 12:51:35;;;;;;;1.50;0.90;;;30.00;66.00;;;;;;4966405;28;20486;-78
2021/09/06 12:54:02;;;;;;;1.50;0.90;;;30.10;68.10;;;;;;4978147;28;20469;-79